KOJC

Johnson County Executive Airport

Olathe, Kansas, USA
METAR KOJC 190253Z AUTO 19004KT 10SM CLR 25/22 A2992 RMK AO2 SLP119 T02500217 53007
Observed Flight Rules
Sep-19 @ 02:53 UTC (25 minutes ago) Visual Flight Rules
Wind Visibility Clouds
190° at 4 knots 10 miles
  • Clear skies
Temperatures Readings
Current 25°C / 77°F
Dewpoint 22°C / 72°F
Humidity 83%
Altimeter 29.92" Hg
Pressure 1011.9 hPa
Elevation 326
METAR KOJC 190253Z AUTO 19004KT 10SM CLR 25/22 A2992 RMK AO2 SLP119 T02500217 53007
Observed Flight Rules
Sep-19 @ 02:53 UTC
(25 minutes ago)
VFR
Wind Visibility
190° at 4 knots 10 miles
Clouds
  • Clear skies
Temperature Dewpoint
25°C / 77°F 22°C / 72°F
Humidity Altimeter Pressure
83% 29.92" Hg 1011.9 hPa